sensor_id;sensor_type;location;lat;lon;timestamp;P1;durP1;ratioP1;P2;durP2;ratioP2
42964;SDS011;28604;51.204;22.552;2023-02-18T00:02:16;10.70;;;7.70;;
42964;SDS011;28604;51.204;22.552;2023-02-18T00:04:42;7.03;;;6.32;;
42964;SDS011;28604;51.204;22.552;2023-02-18T00:07:08;7.10;;;6.40;;
42964;SDS011;28604;51.204;22.552;2023-02-18T00:09:34;6.18;;;5.63;;
42964;SDS011;28604;51.204;22.552;2023-02-18T00:12:00;5.68;;;5.18;;
42964;SDS011;28604;51.204;22.552;2023-02-18T00:14:26;5.32;;;4.22;;
42964;SDS011;28604;51.204;22.552;2023-02-18T00:16:52;3.45;;;3.03;;
42964;SDS011;28604;51.204;22.552;2023-02-18T00:19:18;2.63;;;2.42;;
42964;SDS011;28604;51.204;22.552;2023-02-18T00:21:45;2.30;;;2.10;;
42964;SDS011;28604;51.204;22.552;2023-02-18T00:24:14;2.88;;;1.75;;
42964;SDS011;28604;51.204;22.552;2023-02-18T00:26:41;1.15;;;0.95;;
42964;SDS011;28604;51.204;22.552;2023-02-18T00:29:07;1.00;;;1.00;;
42964;SDS011;28604;51.204;22.552;2023-02-18T00:31:35;0.82;;;0.82;;
42964;SDS011;28604;51.204;22.552;2023-02-18T00:34:03;1.73;;;0.45;;
42964;SDS011;28604;51.204;22.552;2023-02-18T00:36:30;1.00;;;0.73;;
42964;SDS011;28604;51.204;22.552;2023-02-18T00:38:58;0.77;;;0.75;;
42964;SDS011;28604;51.204;22.552;2023-02-18T00:41:27;0.60;;;0.60;;
42964;SDS011;28604;51.204;22.552;2023-02-18T00:43:53;1.40;;;0.70;;
42964;SDS011;28604;51.204;22.552;2023-02-18T00:46:20;0.30;;;0.30;;
42964;SDS011;28604;51.204;22.552;2023-02-18T00:48:47;1.10;;;0.45;;
42964;SDS011;28604;51.204;22.552;2023-02-18T00:51:13;0.68;;;0.20;;
42964;SDS011;28604;51.204;22.552;2023-02-18T00:53:39;1.20;;;0.52;;
42964;SDS011;28604;51.204;22.552;2023-02-18T00:56:06;2.03;;;0.43;;
42964;SDS011;28604;51.204;22.552;2023-02-18T00:58:33;15.40;;;0.60;;
42964;SDS011;28604;51.204;22.552;2023-02-18T01:01:04;3.20;;;0.57;;
42964;SDS011;28604;51.204;22.552;2023-02-18T01:03:32;2.70;;;0.50;;
42964;SDS011;28604;51.204;22.552;2023-02-18T01:05:58;0.70;;;0.15;;
42964;SDS011;28604;51.204;22.552;2023-02-18T01:08:24;0.40;;;0.20;;
42964;SDS011;28604;51.204;22.552;2023-02-18T01:10:51;0.95;;;0.20;;
42964;SDS011;28604;51.204;22.552;2023-02-18T01:13:19;0.52;;;0.15;;
42964;SDS011;28604;51.204;22.552;2023-02-18T01:15:45;2.50;;;0.10;;
42964;SDS011;28604;51.204;22.552;2023-02-18T01:18:12;5.22;;;0.38;;
42964;SDS011;28604;51.204;22.552;2023-02-18T01:20:39;1.90;;;0.30;;
42964;SDS011;28604;51.204;22.552;2023-02-18T01:23:07;0.30;;;0.10;;
42964;SDS011;28604;51.204;22.552;2023-02-18T01:25:34;0.20;;;0.10;;
42964;SDS011;28604;51.204;22.552;2023-02-18T01:28:02;1.33;;;0.20;;
42964;SDS011;28604;51.204;22.552;2023-02-18T01:30:29;3.35;;;0.30;;
42964;SDS011;28604;51.204;22.552;2023-02-18T01:32:55;2.50;;;0.30;;
42964;SDS011;28604;51.204;22.552;2023-02-18T01:35:22;2.25;;;0.20;;
42964;SDS011;28604;51.204;22.552;2023-02-18T01:37:48;1.42;;;0.17;;
42964;SDS011;28604;51.204;22.552;2023-02-18T01:40:17;1.58;;;0.13;;
42964;SDS011;28604;51.204;22.552;2023-02-18T01:42:45;4.45;;;0.10;;
42964;SDS011;28604;51.204;22.552;2023-02-18T01:48:03;1.15;;;0.20;;
42964;SDS011;28604;51.204;22.552;2023-02-18T01:50:34;5.43;;;1.25;;
42964;SDS011;28604;51.204;22.552;2023-02-18T01:53:03;1.88;;;0.28;;
42964;SDS011;28604;51.204;22.552;2023-02-18T01:55:30;3.72;;;0.60;;
42964;SDS011;28604;51.204;22.552;2023-02-18T01:57:58;0.45;;;0.10;;
42964;SDS011;28604;51.204;22.552;2023-02-18T02:00:24;4.70;;;0.30;;
42964;SDS011;28604;51.204;22.552;2023-02-18T02:02:51;1.58;;;0.10;;
42964;SDS011;28604;51.204;22.552;2023-02-18T02:05:19;1.50;;;0.40;;
42964;SDS011;28604;51.204;22.552;2023-02-18T02:07:46;1.65;;;0.20;;
42964;SDS011;28604;51.204;22.552;2023-02-18T02:10:16;0.80;;;0.15;;
42964;SDS011;28604;51.204;22.552;2023-02-18T02:29:14;1.38;;;0.30;;
42964;SDS011;28604;51.204;22.552;2023-02-18T02:32:08;0.43;;;0.40;;
42964;SDS011;28604;51.204;22.552;2023-02-18T02:48:18;1.25;;;0.43;;
42964;SDS011;28604;51.204;22.552;2023-02-18T02:50:49;0.85;;;0.43;;
42964;SDS011;28604;51.204;22.552;2023-02-18T02:53:33;0.65;;;0.43;;
42964;SDS011;28604;51.204;22.552;2023-02-18T02:56:01;1.58;;;0.13;;
42964;SDS011;28604;51.204;22.552;2023-02-18T02:58:28;1.98;;;0.50;;
42964;SDS011;28604;51.204;22.552;2023-02-18T03:03:33;5.15;;;0.52;;
42964;SDS011;28604;51.204;22.552;2023-02-18T03:17:54;2.42;;;0.40;;
42964;SDS011;28604;51.204;22.552;2023-02-18T03:20:27;2.55;;;0.25;;
42964;SDS011;28604;51.204;22.552;2023-02-18T03:23:02;3.28;;;0.30;;
42964;SDS011;28604;51.204;22.552;2023-02-18T03:25:41;9.55;;;0.75;;
42964;SDS011;28604;51.204;22.552;2023-02-18T03:28:08;4.85;;;0.65;;
42964;SDS011;28604;51.204;22.552;2023-02-18T03:30:45;2.97;;;0.82;;
42964;SDS011;28604;51.204;22.552;2023-02-18T03:33:16;6.10;;;0.47;;
42964;SDS011;28604;51.204;22.552;2023-02-18T03:35:49;2.58;;;0.65;;
42964;SDS011;28604;51.204;22.552;2023-02-18T03:38:20;4.00;;;0.60;;
42964;SDS011;28604;51.204;22.552;2023-02-18T03:41:03;6.10;;;0.70;;
42964;SDS011;28604;51.204;22.552;2023-02-18T03:43:32;6.50;;;0.68;;
42964;SDS011;28604;51.204;22.552;2023-02-18T03:45:58;5.97;;;0.60;;
42964;SDS011;28604;51.204;22.552;2023-02-18T03:48:25;5.72;;;0.52;;
42964;SDS011;28604;51.204;22.552;2023-02-18T03:50:51;8.00;;;0.73;;
42964;SDS011;28604;51.204;22.552;2023-02-18T03:53:17;6.07;;;0.40;;
42964;SDS011;28604;51.204;22.552;2023-02-18T03:55:43;4.40;;;0.28;;
42964;SDS011;28604;51.204;22.552;2023-02-18T03:58:09;4.85;;;0.30;;
42964;SDS011;28604;51.204;22.552;2023-02-18T04:00:35;7.25;;;0.80;;
42964;SDS011;28604;51.204;22.552;2023-02-18T04:03:01;3.00;;;0.40;;
42964;SDS011;28604;51.204;22.552;2023-02-18T04:05:27;3.35;;;0.52;;
42964;SDS011;28604;51.204;22.552;2023-02-18T04:07:52;7.03;;;0.40;;
42964;SDS011;28604;51.204;22.552;2023-02-18T04:10:19;5.75;;;0.65;;
42964;SDS011;28604;51.204;22.552;2023-02-18T04:12:47;7.20;;;1.33;;
42964;SDS011;28604;51.204;22.552;2023-02-18T04:15:13;3.20;;;0.30;;
42964;SDS011;28604;51.204;22.552;2023-02-18T04:17:38;4.68;;;0.47;;
42964;SDS011;28604;51.204;22.552;2023-02-18T04:20:05;1.73;;;0.50;;
42964;SDS011;28604;51.204;22.552;2023-02-18T04:22:31;5.80;;;0.47;;
42964;SDS011;28604;51.204;22.552;2023-02-18T04:24:57;3.83;;;0.32;;
42964;SDS011;28604;51.204;22.552;2023-02-18T04:27:24;5.72;;;0.40;;
42964;SDS011;28604;51.204;22.552;2023-02-18T04:29:51;5.95;;;0.40;;
42964;SDS011;28604;51.204;22.552;2023-02-18T04:32:17;4.85;;;1.15;;
42964;SDS011;28604;51.204;22.552;2023-02-18T04:34:43;4.18;;;0.60;;
42964;SDS011;28604;51.204;22.552;2023-02-18T04:37:08;9.60;;;0.60;;
42964;SDS011;28604;51.204;22.552;2023-02-18T04:39:34;3.13;;;0.30;;
42964;SDS011;28604;51.204;22.552;2023-02-18T04:42:00;3.25;;;0.35;;
42964;SDS011;28604;51.204;22.552;2023-02-18T04:44:27;6.18;;;0.63;;
42964;SDS011;28604;51.204;22.552;2023-02-18T04:46:52;9.52;;;0.93;;
42964;SDS011;28604;51.204;22.552;2023-02-18T04:49:18;1.65;;;0.50;;
42964;SDS011;28604;51.204;22.552;2023-02-18T04:51:44;4.00;;;0.88;;
42964;SDS011;28604;51.204;22.552;2023-02-18T04:54:10;5.82;;;0.40;;
42964;SDS011;28604;51.204;22.552;2023-02-18T04:56:36;2.70;;;0.50;;
42964;SDS011;28604;51.204;22.552;2023-02-18T04:59:02;19.30;;;1.42;;
42964;SDS011;28604;51.204;22.552;2023-02-18T05:01:28;7.03;;;0.65;;
42964;SDS011;28604;51.204;22.552;2023-02-18T05:03:54;7.65;;;0.88;;
42964;SDS011;28604;51.204;22.552;2023-02-18T05:06:20;12.82;;;1.55;;
42964;SDS011;28604;51.204;22.552;2023-02-18T05:08:46;4.47;;;0.68;;
42964;SDS011;28604;51.204;22.552;2023-02-18T05:11:11;5.68;;;0.40;;
42964;SDS011;28604;51.204;22.552;2023-02-18T05:13:37;5.38;;;0.30;;
42964;SDS011;28604;51.204;22.552;2023-02-18T05:16:03;7.50;;;0.50;;
42964;SDS011;28604;51.204;22.552;2023-02-18T05:18:29;8.40;;;0.82;;
42964;SDS011;28604;51.204;22.552;2023-02-18T05:20:55;3.90;;;0.57;;
42964;SDS011;28604;51.204;22.552;2023-02-18T05:23:21;6.35;;;0.52;;
42964;SDS011;28604;51.204;22.552;2023-02-18T05:25:48;11.23;;;0.85;;
42964;SDS011;28604;51.204;22.552;2023-02-18T05:28:14;4.60;;;0.40;;
42964;SDS011;28604;51.204;22.552;2023-02-18T05:30:40;6.85;;;0.63;;
42964;SDS011;28604;51.204;22.552;2023-02-18T05:33:06;3.60;;;0.22;;
42964;SDS011;28604;51.204;22.552;2023-02-18T05:35:32;3.40;;;0.50;;
42964;SDS011;28604;51.204;22.552;2023-02-18T05:37:58;7.55;;;0.47;;
42964;SDS011;28604;51.204;22.552;2023-02-18T05:40:24;6.45;;;0.30;;
42964;SDS011;28604;51.204;22.552;2023-02-18T05:42:50;6.57;;;0.57;;
42964;SDS011;28604;51.204;22.552;2023-02-18T05:45:16;10.80;;;0.50;;
42964;SDS011;28604;51.204;22.552;2023-02-18T05:47:42;2.95;;;0.45;;
42964;SDS011;28604;51.204;22.552;2023-02-18T05:50:08;9.68;;;0.52;;
42964;SDS011;28604;51.204;22.552;2023-02-18T05:52:34;8.93;;;0.70;;
42964;SDS011;28604;51.204;22.552;2023-02-18T05:55:00;5.97;;;0.85;;
42964;SDS011;28604;51.204;22.552;2023-02-18T05:57:26;2.05;;;0.55;;
42964;SDS011;28604;51.204;22.552;2023-02-18T05:59:52;8.05;;;0.60;;
42964;SDS011;28604;51.204;22.552;2023-02-18T06:02:18;9.48;;;1.38;;
42964;SDS011;28604;51.204;22.552;2023-02-18T06:04:44;4.60;;;0.65;;
42964;SDS011;28604;51.204;22.552;2023-02-18T06:07:10;5.10;;;0.70;;
42964;SDS011;28604;51.204;22.552;2023-02-18T06:09:36;6.60;;;0.82;;
42964;SDS011;28604;51.204;22.552;2023-02-18T06:12:02;6.22;;;1.25;;
42964;SDS011;28604;51.204;22.552;2023-02-18T06:14:28;7.13;;;0.77;;
42964;SDS011;28604;51.204;22.552;2023-02-18T06:16:54;3.92;;;0.38;;
42964;SDS011;28604;51.204;22.552;2023-02-18T06:19:20;4.47;;;0.77;;
42964;SDS011;28604;51.204;22.552;2023-02-18T06:21:46;7.13;;;0.85;;
42964;SDS011;28604;51.204;22.552;2023-02-18T06:24:12;7.55;;;0.55;;
42964;SDS011;28604;51.204;22.552;2023-02-18T06:26:39;9.00;;;0.60;;
42964;SDS011;28604;51.204;22.552;2023-02-18T06:29:05;11.85;;;0.98;;
42964;SDS011;28604;51.204;22.552;2023-02-18T06:31:31;11.30;;;0.70;;
42964;SDS011;28604;51.204;22.552;2023-02-18T06:33:57;10.55;;;0.50;;
42964;SDS011;28604;51.204;22.552;2023-02-18T06:36:23;4.00;;;0.55;;
42964;SDS011;28604;51.204;22.552;2023-02-18T06:38:48;10.80;;;0.60;;
42964;SDS011;28604;51.204;22.552;2023-02-18T06:41:15;8.93;;;0.65;;
42964;SDS011;28604;51.204;22.552;2023-02-18T06:43:41;6.50;;;1.00;;
42964;SDS011;28604;51.204;22.552;2023-02-18T06:46:07;9.35;;;0.60;;
42964;SDS011;28604;51.204;22.552;2023-02-18T06:48:33;4.30;;;0.45;;
42964;SDS011;28604;51.204;22.552;2023-02-18T06:50:59;5.05;;;0.82;;
42964;SDS011;28604;51.204;22.552;2023-02-18T06:53:25;9.75;;;1.30;;
42964;SDS011;28604;51.204;22.552;2023-02-18T06:55:51;10.15;;;1.20;;
42964;SDS011;28604;51.204;22.552;2023-02-18T06:58:17;6.53;;;0.50;;
42964;SDS011;28604;51.204;22.552;2023-02-18T07:00:43;9.00;;;1.08;;
42964;SDS011;28604;51.204;22.552;2023-02-18T07:03:10;8.73;;;0.90;;
42964;SDS011;28604;51.204;22.552;2023-02-18T07:05:40;3.10;;;0.70;;
42964;SDS011;28604;51.204;22.552;2023-02-18T07:08:06;8.77;;;0.95;;
42964;SDS011;28604;51.204;22.552;2023-02-18T07:10:33;5.07;;;0.73;;
42964;SDS011;28604;51.204;22.552;2023-02-18T07:12:59;3.88;;;0.50;;
42964;SDS011;28604;51.204;22.552;2023-02-18T07:15:25;9.57;;;1.00;;
42964;SDS011;28604;51.204;22.552;2023-02-18T07:17:52;8.13;;;0.60;;
42964;SDS011;28604;51.204;22.552;2023-02-18T07:20:19;8.18;;;0.93;;
42964;SDS011;28604;51.204;22.552;2023-02-18T07:22:46;4.70;;;0.90;;
42964;SDS011;28604;51.204;22.552;2023-02-18T07:25:12;5.55;;;0.65;;
42964;SDS011;28604;51.204;22.552;2023-02-18T07:27:39;6.05;;;0.52;;
42964;SDS011;28604;51.204;22.552;2023-02-18T07:30:05;8.68;;;1.00;;
42964;SDS011;28604;51.204;22.552;2023-02-18T07:32:32;12.75;;;1.92;;
42964;SDS011;28604;51.204;22.552;2023-02-18T07:34:59;6.03;;;0.77;;
42964;SDS011;28604;51.204;22.552;2023-02-18T07:37:24;9.57;;;1.00;;
42964;SDS011;28604;51.204;22.552;2023-02-18T07:39:51;5.25;;;0.32;;
42964;SDS011;28604;51.204;22.552;2023-02-18T07:42:16;12.05;;;0.80;;
42964;SDS011;28604;51.204;22.552;2023-02-18T07:44:43;6.53;;;0.95;;
42964;SDS011;28604;51.204;22.552;2023-02-18T07:47:09;7.53;;;0.90;;
42964;SDS011;28604;51.204;22.552;2023-02-18T07:49:39;6.78;;;0.85;;
42964;SDS011;28604;51.204;22.552;2023-02-18T07:52:05;7.13;;;0.63;;
42964;SDS011;28604;51.204;22.552;2023-02-18T07:54:31;11.32;;;1.00;;
42964;SDS011;28604;51.204;22.552;2023-02-18T07:56:57;3.90;;;0.60;;
42964;SDS011;28604;51.204;22.552;2023-02-18T07:59:23;10.88;;;1.00;;
42964;SDS011;28604;51.204;22.552;2023-02-18T08:01:49;7.75;;;0.85;;
42964;SDS011;28604;51.204;22.552;2023-02-18T08:04:15;9.25;;;1.23;;
42964;SDS011;28604;51.204;22.552;2023-02-18T08:06:44;8.10;;;1.00;;
42964;SDS011;28604;51.204;22.552;2023-02-18T08:09:12;12.80;;;1.00;;
42964;SDS011;28604;51.204;22.552;2023-02-18T08:11:39;8.90;;;0.80;;
42964;SDS011;28604;51.204;22.552;2023-02-18T08:14:05;5.25;;;0.80;;
42964;SDS011;28604;51.204;22.552;2023-02-18T08:16:31;6.22;;;1.00;;
42964;SDS011;28604;51.204;22.552;2023-02-18T08:18:59;10.73;;;1.40;;
42964;SDS011;28604;51.204;22.552;2023-02-18T08:21:27;10.95;;;1.17;;
42964;SDS011;28604;51.204;22.552;2023-02-18T08:23:53;6.13;;;1.02;;
42964;SDS011;28604;51.204;22.552;2023-02-18T08:26:19;7.70;;;0.90;;
42964;SDS011;28604;51.204;22.552;2023-02-18T08:28:46;9.57;;;1.13;;
42964;SDS011;28604;51.204;22.552;2023-02-18T08:31:19;8.23;;;0.82;;
42964;SDS011;28604;51.204;22.552;2023-02-18T08:33:49;6.47;;;0.82;;
42964;SDS011;28604;51.204;22.552;2023-02-18T08:36:16;9.68;;;1.13;;
42964;SDS011;28604;51.204;22.552;2023-02-18T08:38:42;8.73;;;1.05;;
42964;SDS011;28604;51.204;22.552;2023-02-18T08:41:08;9.90;;;0.98;;
42964;SDS011;28604;51.204;22.552;2023-02-18T08:43:35;4.72;;;0.88;;
42964;SDS011;28604;51.204;22.552;2023-02-18T08:46:01;9.27;;;2.05;;
42964;SDS011;28604;51.204;22.552;2023-02-18T08:48:28;4.93;;;1.20;;
42964;SDS011;28604;51.204;22.552;2023-02-18T08:50:54;10.95;;;1.00;;
42964;SDS011;28604;51.204;22.552;2023-02-18T08:53:20;7.57;;;0.85;;
42964;SDS011;28604;51.204;22.552;2023-02-18T08:55:46;8.52;;;1.20;;
42964;SDS011;28604;51.204;22.552;2023-02-18T08:58:12;10.30;;;1.50;;
42964;SDS011;28604;51.204;22.552;2023-02-18T09:00:38;9.52;;;1.00;;
42964;SDS011;28604;51.204;22.552;2023-02-18T09:03:05;11.18;;;0.93;;
42964;SDS011;28604;51.204;22.552;2023-02-18T09:05:32;7.78;;;1.20;;
42964;SDS011;28604;51.204;22.552;2023-02-18T09:07:58;6.50;;;1.10;;
42964;SDS011;28604;51.204;22.552;2023-02-18T09:10:24;6.32;;;0.98;;
42964;SDS011;28604;51.204;22.552;2023-02-18T09:12:50;4.47;;;0.85;;
42964;SDS011;28604;51.204;22.552;2023-02-18T09:15:16;7.72;;;1.48;;
42964;SDS011;28604;51.204;22.552;2023-02-18T09:17:42;13.88;;;1.13;;
42964;SDS011;28604;51.204;22.552;2023-02-18T09:20:08;3.72;;;0.80;;
42964;SDS011;28604;51.204;22.552;2023-02-18T09:22:34;8.05;;;0.63;;
42964;SDS011;28604;51.204;22.552;2023-02-18T09:25:00;8.60;;;1.13;;
42964;SDS011;28604;51.204;22.552;2023-02-18T09:27:27;13.00;;;1.50;;
42964;SDS011;28604;51.204;22.552;2023-02-18T09:29:53;8.70;;;1.23;;
42964;SDS011;28604;51.204;22.552;2023-02-18T09:32:19;10.57;;;1.02;;
42964;SDS011;28604;51.204;22.552;2023-02-18T09:34:45;10.50;;;2.15;;
42964;SDS011;28604;51.204;22.552;2023-02-18T09:37:11;7.38;;;1.65;;
42964;SDS011;28604;51.204;22.552;2023-02-18T09:39:38;6.00;;;0.80;;
42964;SDS011;28604;51.204;22.552;2023-02-18T09:42:06;8.27;;;0.88;;
42964;SDS011;28604;51.204;22.552;2023-02-18T09:44:41;9.23;;;1.38;;
42964;SDS011;28604;51.204;22.552;2023-02-18T09:47:14;5.82;;;1.15;;
42964;SDS011;28604;51.204;22.552;2023-02-18T09:49:50;9.18;;;1.27;;
42964;SDS011;28604;51.204;22.552;2023-02-18T09:52:33;13.70;;;1.83;;
42964;SDS011;28604;51.204;22.552;2023-02-18T09:55:22;7.28;;;1.13;;
42964;SDS011;28604;51.204;22.552;2023-02-18T09:57:52;6.53;;;1.35;;
42964;SDS011;28604;51.204;22.552;2023-02-18T10:00:28;9.65;;;0.93;;
42964;SDS011;28604;51.204;22.552;2023-02-18T10:03:06;11.02;;;1.30;;
42964;SDS011;28604;51.204;22.552;2023-02-18T10:05:36;4.82;;;1.60;;
42964;SDS011;28604;51.204;22.552;2023-02-18T10:08:18;5.93;;;1.25;;
42964;SDS011;28604;51.204;22.552;2023-02-18T10:10:49;6.75;;;1.13;;
42964;SDS011;28604;51.204;22.552;2023-02-18T10:13:23;9.02;;;1.35;;
42964;SDS011;28604;51.204;22.552;2023-02-18T10:15:51;10.90;;;1.30;;
42964;SDS011;28604;51.204;22.552;2023-02-18T10:18:31;13.10;;;1.20;;
42964;SDS011;28604;51.204;22.552;2023-02-18T10:21:13;4.32;;;1.00;;
42964;SDS011;28604;51.204;22.552;2023-02-18T10:26:30;6.22;;;1.20;;
42964;SDS011;28604;51.204;22.552;2023-02-18T10:29:00;7.63;;;1.02;;
42964;SDS011;28604;51.204;22.552;2023-02-18T10:31:35;4.28;;;0.75;;
42964;SDS011;28604;51.204;22.552;2023-02-18T10:42:00;5.38;;;1.17;;
42964;SDS011;28604;51.204;22.552;2023-02-18T10:50:02;5.55;;;1.42;;
42964;SDS011;28604;51.204;22.552;2023-02-18T10:52:37;6.40;;;1.85;;
42964;SDS011;28604;51.204;22.552;2023-02-18T10:55:08;10.50;;;2.53;;
42964;SDS011;28604;51.204;22.552;2023-02-18T10:57:46;8.48;;;1.60;;
42964;SDS011;28604;51.204;22.552;2023-02-18T11:02:43;7.07;;;1.27;;
42964;SDS011;28604;51.204;22.552;2023-02-18T11:05:21;5.70;;;1.00;;
42964;SDS011;28604;51.204;22.552;2023-02-18T11:07:50;5.03;;;0.82;;
42964;SDS011;28604;51.204;22.552;2023-02-18T11:10:25;7.03;;;1.48;;
42964;SDS011;28604;51.204;22.552;2023-02-18T11:12:56;10.05;;;1.38;;
42964;SDS011;28604;51.204;22.552;2023-02-18T11:15:25;8.15;;;1.42;;
42964;SDS011;28604;51.204;22.552;2023-02-18T11:17:54;9.98;;;1.85;;
42964;SDS011;28604;51.204;22.552;2023-02-18T11:20:29;8.98;;;0.90;;
42964;SDS011;28604;51.204;22.552;2023-02-18T11:31:06;10.38;;;1.25;;
42964;SDS011;28604;51.204;22.552;2023-02-18T11:33:42;7.55;;;1.25;;
42964;SDS011;28604;51.204;22.552;2023-02-18T11:41:28;4.47;;;1.13;;
42964;SDS011;28604;51.204;22.552;2023-02-18T11:43:58;5.28;;;0.88;;
42964;SDS011;28604;51.204;22.552;2023-02-18T11:46:26;12.57;;;1.70;;
42964;SDS011;28604;51.204;22.552;2023-02-18T11:48:52;6.07;;;0.85;;
42964;SDS011;28604;51.204;22.552;2023-02-18T11:51:24;10.07;;;1.10;;
42964;SDS011;28604;51.204;22.552;2023-02-18T11:56:30;7.47;;;1.17;;
42964;SDS011;28604;51.204;22.552;2023-02-18T11:58:59;6.93;;;1.13;;
42964;SDS011;28604;51.204;22.552;2023-02-18T12:01:29;7.32;;;0.75;;
42964;SDS011;28604;51.204;22.552;2023-02-18T12:04:15;6.93;;;1.35;;
42964;SDS011;28604;51.204;22.552;2023-02-18T12:09:45;2.45;;;1.00;;
42964;SDS011;28604;51.204;22.552;2023-02-18T12:14:45;9.43;;;1.45;;
42964;SDS011;28604;51.204;22.552;2023-02-18T12:23:04;9.05;;;1.63;;
42964;SDS011;28604;51.204;22.552;2023-02-18T12:25:51;7.78;;;1.23;;
42964;SDS011;28604;51.204;22.552;2023-02-18T12:28:40;11.18;;;2.17;;
42964;SDS011;28604;51.204;22.552;2023-02-18T12:31:44;8.10;;;1.10;;
42964;SDS011;28604;51.204;22.552;2023-02-18T12:34:50;5.50;;;1.30;;
42964;SDS011;28604;51.204;22.552;2023-02-18T12:42:55;4.75;;;1.00;;
42964;SDS011;28604;51.204;22.552;2023-02-18T12:45:48;5.70;;;1.42;;
42964;SDS011;28604;51.204;22.552;2023-02-18T12:51:46;6.80;;;1.35;;
42964;SDS011;28604;51.204;22.552;2023-02-18T13:00:10;6.47;;;2.67;;
42964;SDS011;28604;51.204;22.552;2023-02-18T13:03:20;7.10;;;1.27;;
42964;SDS011;28604;51.204;22.552;2023-02-18T13:09:30;11.75;;;1.67;;
42964;SDS011;28604;51.204;22.552;2023-02-18T13:11:57;6.32;;;1.40;;
42964;SDS011;28604;51.204;22.552;2023-02-18T13:14:27;6.53;;;1.40;;
42964;SDS011;28604;51.204;22.552;2023-02-18T13:16:56;5.85;;;1.35;;
42964;SDS011;28604;51.204;22.552;2023-02-18T13:19:26;4.57;;;1.33;;
42964;SDS011;28604;51.204;22.552;2023-02-18T13:22:00;8.30;;;2.70;;
42964;SDS011;28604;51.204;22.552;2023-02-18T13:27:05;6.47;;;1.40;;
42964;SDS011;28604;51.204;22.552;2023-02-18T13:29:35;7.88;;;1.60;;
42964;SDS011;28604;51.204;22.552;2023-02-18T13:35:08;9.52;;;1.60;;
42964;SDS011;28604;51.204;22.552;2023-02-18T13:40:51;5.18;;;1.58;;
42964;SDS011;28604;51.204;22.552;2023-02-18T13:43:18;7.10;;;1.50;;
42964;SDS011;28604;51.204;22.552;2023-02-18T13:48:39;11.18;;;1.85;;
42964;SDS011;28604;51.204;22.552;2023-02-18T13:51:07;10.65;;;1.48;;
42964;SDS011;28604;51.204;22.552;2023-02-18T13:53:35;8.05;;;1.40;;
42964;SDS011;28604;51.204;22.552;2023-02-18T13:58:41;4.10;;;1.02;;
42964;SDS011;28604;51.204;22.552;2023-02-18T14:01:14;7.60;;;1.38;;
42964;SDS011;28604;51.204;22.552;2023-02-18T14:06:13;7.95;;;2.00;;
42964;SDS011;28604;51.204;22.552;2023-02-18T14:08:44;3.20;;;0.87;;
42964;SDS011;28604;51.204;22.552;2023-02-18T14:13:40;5.60;;;1.27;;
42964;SDS011;28604;51.204;22.552;2023-02-18T14:16:25;8.52;;;1.40;;
42964;SDS011;28604;51.204;22.552;2023-02-18T14:18:55;6.78;;;2.10;;
42964;SDS011;28604;51.204;22.552;2023-02-18T14:21:37;7.20;;;1.15;;
42964;SDS011;28604;51.204;22.552;2023-02-18T14:24:05;6.68;;;1.40;;
42964;SDS011;28604;51.204;22.552;2023-02-18T14:26:35;5.13;;;1.42;;
42964;SDS011;28604;51.204;22.552;2023-02-18T14:29:47;6.28;;;2.08;;
42964;SDS011;28604;51.204;22.552;2023-02-18T14:32:08;3.72;;;1.40;;
42964;SDS011;28604;51.204;22.552;2023-02-18T14:34:44;7.10;;;1.67;;
42964;SDS011;28604;51.204;22.552;2023-02-18T14:40:16;4.50;;;1.00;;
42964;SDS011;28604;51.204;22.552;2023-02-18T14:43:06;7.22;;;2.35;;
42964;SDS011;28604;51.204;22.552;2023-02-18T14:46:02;4.15;;;1.38;;
42964;SDS011;28604;51.204;22.552;2023-02-18T14:51:15;5.78;;;1.65;;
42964;SDS011;28604;51.204;22.552;2023-02-18T14:53:47;5.68;;;1.80;;
42964;SDS011;28604;51.204;22.552;2023-02-18T14:56:14;6.13;;;1.77;;
42964;SDS011;28604;51.204;22.552;2023-02-18T14:58:58;10.60;;;1.85;;
42964;SDS011;28604;51.204;22.552;2023-02-18T15:01:28;5.28;;;1.30;;
42964;SDS011;28604;51.204;22.552;2023-02-18T15:03:59;5.38;;;1.85;;
42964;SDS011;28604;51.204;22.552;2023-02-18T15:06:32;5.85;;;1.60;;
42964;SDS011;28604;51.204;22.552;2023-02-18T15:09:00;5.40;;;1.30;;
42964;SDS011;28604;51.204;22.552;2023-02-18T15:11:38;5.80;;;1.42;;
42964;SDS011;28604;51.204;22.552;2023-02-18T15:14:20;6.05;;;1.65;;
42964;SDS011;28604;51.204;22.552;2023-02-18T15:16:51;2.50;;;1.20;;
42964;SDS011;28604;51.204;22.552;2023-02-18T15:19:19;5.30;;;1.30;;
42964;SDS011;28604;51.204;22.552;2023-02-18T15:21:49;4.78;;;1.58;;
42964;SDS011;28604;51.204;22.552;2023-02-18T15:24:31;11.48;;;1.88;;
42964;SDS011;28604;51.204;22.552;2023-02-18T15:27:00;10.20;;;2.13;;
42964;SDS011;28604;51.204;22.552;2023-02-18T15:29:30;4.90;;;1.58;;
42964;SDS011;28604;51.204;22.552;2023-02-18T15:31:59;3.85;;;1.48;;
42964;SDS011;28604;51.204;22.552;2023-02-18T15:34:29;4.15;;;1.48;;
42964;SDS011;28604;51.204;22.552;2023-02-18T15:36:56;5.25;;;1.52;;
42964;SDS011;28604;51.204;22.552;2023-02-18T15:39:23;7.55;;;1.48;;
42964;SDS011;28604;51.204;22.552;2023-02-18T15:42:11;5.72;;;1.42;;
42964;SDS011;28604;51.204;22.552;2023-02-18T15:44:42;9.00;;;3.22;;
42964;SDS011;28604;51.204;22.552;2023-02-18T15:47:11;11.02;;;3.63;;
42964;SDS011;28604;51.204;22.552;2023-02-18T15:49:39;7.80;;;3.05;;
42964;SDS011;28604;51.204;22.552;2023-02-18T15:52:29;7.63;;;2.63;;
42964;SDS011;28604;51.204;22.552;2023-02-18T15:55:06;13.73;;;3.70;;
42964;SDS011;28604;51.204;22.552;2023-02-18T15:57:44;9.23;;;3.03;;
42964;SDS011;28604;51.204;22.552;2023-02-18T16:00:12;19.92;;;3.65;;
42964;SDS011;28604;51.204;22.552;2023-02-18T16:02:51;9.75;;;3.80;;
42964;SDS011;28604;51.204;22.552;2023-02-18T16:05:21;13.20;;;4.28;;
42964;SDS011;28604;51.204;22.552;2023-02-18T16:07:51;12.70;;;4.22;;
42964;SDS011;28604;51.204;22.552;2023-02-18T16:10:36;9.43;;;4.32;;
42964;SDS011;28604;51.204;22.552;2023-02-18T16:13:15;9.77;;;3.85;;
42964;SDS011;28604;51.204;22.552;2023-02-18T16:15:43;12.68;;;5.05;;
42964;SDS011;28604;51.204;22.552;2023-02-18T16:18:21;8.05;;;2.88;;
42964;SDS011;28604;51.204;22.552;2023-02-18T16:20:59;6.40;;;2.13;;
42964;SDS011;28604;51.204;22.552;2023-02-18T16:23:32;4.45;;;2.03;;
42964;SDS011;28604;51.204;22.552;2023-02-18T16:29:04;5.07;;;1.80;;
42964;SDS011;28604;51.204;22.552;2023-02-18T16:31:40;2.22;;;1.02;;
42964;SDS011;28604;51.204;22.552;2023-02-18T16:34:07;4.95;;;1.30;;
42964;SDS011;28604;51.204;22.552;2023-02-18T16:36:33;5.80;;;1.30;;
42964;SDS011;28604;51.204;22.552;2023-02-18T16:38:59;2.47;;;1.00;;
42964;SDS011;28604;51.204;22.552;2023-02-18T16:41:26;4.53;;;1.17;;
42964;SDS011;28604;51.204;22.552;2023-02-18T16:43:53;7.60;;;2.15;;
42964;SDS011;28604;51.204;22.552;2023-02-18T16:46:20;5.47;;;1.27;;
42964;SDS011;28604;51.204;22.552;2023-02-18T16:48:51;5.80;;;1.08;;
42964;SDS011;28604;51.204;22.552;2023-02-18T16:51:27;2.92;;;1.00;;
42964;SDS011;28604;51.204;22.552;2023-02-18T16:53:56;5.78;;;1.33;;
42964;SDS011;28604;51.204;22.552;2023-02-18T16:56:26;5.15;;;1.42;;
42964;SDS011;28604;51.204;22.552;2023-02-18T16:58:56;4.22;;;1.35;;
42964;SDS011;28604;51.204;22.552;2023-02-18T17:01:24;1.52;;;0.70;;
42964;SDS011;28604;51.204;22.552;2023-02-18T17:03:53;5.55;;;1.35;;
42964;SDS011;28604;51.204;22.552;2023-02-18T17:06:19;4.82;;;2.47;;
42964;SDS011;28604;51.204;22.552;2023-02-18T17:08:46;6.70;;;3.00;;